sensor_id;sensor_type;location;lat;lon;timestamp;temperature;humidity
7494;DHT22;3788;49.902;8.590;2023-04-01T00:00:36;11.00;99.90
7494;DHT22;3788;49.902;8.590;2023-04-01T00:03:03;11.00;99.90
7494;DHT22;3788;49.902;8.590;2023-04-01T00:05:30;11.10;99.90
7494;DHT22;3788;49.902;8.590;2023-04-01T00:07:57;11.10;99.90
7494;DHT22;3788;49.902;8.590;2023-04-01T00:10:24;11.10;99.90
7494;DHT22;3788;49.902;8.590;2023-04-01T00:12:50;11.10;99.90
7494;DHT22;3788;49.902;8.590;2023-04-01T00:15:17;11.00;99.90
7494;DHT22;3788;49.902;8.590;2023-04-01T00:17:45;11.00;99.90
7494;DHT22;3788;49.902;8.590;2023-04-01T00:20:12;11.00;99.90
7494;DHT22;3788;49.902;8.590;2023-04-01T00:22:39;11.10;99.90
7494;DHT22;3788;49.902;8.590;2023-04-01T00:25:07;11.10;99.90
7494;DHT22;3788;49.902;8.590;2023-04-01T00:27:34;11.10;99.90
7494;DHT22;3788;49.902;8.590;2023-04-01T00:30:00;11.10;99.90
7494;DHT22;3788;49.902;8.590;2023-04-01T00:32:27;11.00;99.90
7494;DHT22;3788;49.902;8.590;2023-04-01T00:34:57;11.00;99.90
7494;DHT22;3788;49.902;8.590;2023-04-01T00:37:25;11.00;99.90
7494;DHT22;3788;49.902;8.590;2023-04-01T00:39:51;11.00;99.90
7494;DHT22;3788;49.902;8.590;2023-04-01T00:42:18;11.00;99.90
7494;DHT22;3788;49.902;8.590;2023-04-01T00:44:47;11.00;99.90
7494;DHT22;3788;49.902;8.590;2023-04-01T00:47:16;11.00;99.90
7494;DHT22;3788;49.902;8.590;2023-04-01T00:49:46;11.00;99.90
7494;DHT22;3788;49.902;8.590;2023-04-01T00:52:17;11.00;99.90
7494;DHT22;3788;49.902;8.590;2023-04-01T00:54:47;11.00;99.90
7494;DHT22;3788;49.902;8.590;2023-04-01T00:57:18;11.00;99.90
7494;DHT22;3788;49.902;8.590;2023-04-01T00:59:48;10.90;99.90
7494;DHT22;3788;49.902;8.590;2023-04-01T01:02:16;11.00;99.90
7494;DHT22;3788;49.902;8.590;2023-04-01T01:04:42;10.90;99.90
7494;DHT22;3788;49.902;8.590;2023-04-01T01:07:19;10.90;99.90
7494;DHT22;3788;49.902;8.590;2023-04-01T01:09:53;11.00;99.90
7494;DHT22;3788;49.902;8.590;2023-04-01T01:12:26;11.00;99.90
7494;DHT22;3788;49.902;8.590;2023-04-01T01:15:01;11.00;99.90
7494;DHT22;3788;49.902;8.590;2023-04-01T01:17:38;11.00;99.90
7494;DHT22;3788;49.902;8.590;2023-04-01T01:20:37;10.90;99.90
7494;DHT22;3788;49.902;8.590;2023-04-01T01:23:43;10.90;99.90
7494;DHT22;3788;49.902;8.590;2023-04-01T01:26:31;10.90;99.90
7494;DHT22;3788;49.902;8.590;2023-04-01T01:29:07;10.90;99.90
7494;DHT22;3788;49.902;8.590;2023-04-01T01:31:45;10.90;99.90
7494;DHT22;3788;49.902;8.590;2023-04-01T01:34:22;10.90;99.90
7494;DHT22;3788;49.902;8.590;2023-04-01T01:36:55;10.90;99.90
7494;DHT22;3788;49.902;8.590;2023-04-01T01:39:26;10.90;99.90
7494;DHT22;3788;49.902;8.590;2023-04-01T01:41:56;10.90;99.90
7494;DHT22;3788;49.902;8.590;2023-04-01T01:44:24;10.90;99.90
7494;DHT22;3788;49.902;8.590;2023-04-01T01:46:52;10.90;99.90
7494;DHT22;3788;49.902;8.590;2023-04-01T01:49:19;10.90;99.90
7494;DHT22;3788;49.902;8.590;2023-04-01T01:51:46;10.90;99.90
7494;DHT22;3788;49.902;8.590;2023-04-01T01:54:15;10.90;99.90
7494;DHT22;3788;49.902;8.590;2023-04-01T01:56:46;10.90;99.90
7494;DHT22;3788;49.902;8.590;2023-04-01T01:59:15;10.90;99.90
7494;DHT22;3788;49.902;8.590;2023-04-01T02:01:46;10.90;99.90
7494;DHT22;3788;49.902;8.590;2023-04-01T02:04:16;10.90;99.90
7494;DHT22;3788;49.902;8.590;2023-04-01T02:06:47;10.90;99.90
7494;DHT22;3788;49.902;8.590;2023-04-01T02:09:19;10.90;99.90
7494;DHT22;3788;49.902;8.590;2023-04-01T02:11:49;10.90;99.90
7494;DHT22;3788;49.902;8.590;2023-04-01T02:14:19;10.90;99.90
7494;DHT22;3788;49.902;8.590;2023-04-01T02:16:51;10.90;99.90
7494;DHT22;3788;49.902;8.590;2023-04-01T02:19:20;10.90;99.90
7494;DHT22;3788;49.902;8.590;2023-04-01T02:21:50;10.90;99.90
7494;DHT22;3788;49.902;8.590;2023-04-01T02:24:19;10.90;99.90
7494;DHT22;3788;49.902;8.590;2023-04-01T02:26:48;10.80;99.90
7494;DHT22;3788;49.902;8.590;2023-04-01T02:29:18;10.80;99.90
7494;DHT22;3788;49.902;8.590;2023-04-01T02:31:46;10.80;99.90
7494;DHT22;3788;49.902;8.590;2023-04-01T02:34:13;10.90;99.90
7494;DHT22;3788;49.902;8.590;2023-04-01T02:36:41;10.80;99.90
7494;DHT22;3788;49.902;8.590;2023-04-01T02:39:08;10.80;99.90
7494;DHT22;3788;49.902;8.590;2023-04-01T02:41:40;10.80;99.90
7494;DHT22;3788;49.902;8.590;2023-04-01T02:44:08;10.80;99.90
7494;DHT22;3788;49.902;8.590;2023-04-01T02:46:35;10.80;99.90
7494;DHT22;3788;49.902;8.590;2023-04-01T02:49:02;10.70;99.90
7494;DHT22;3788;49.902;8.590;2023-04-01T02:51:29;10.70;99.90
7494;DHT22;3788;49.902;8.590;2023-04-01T02:53:56;10.70;99.90
7494;DHT22;3788;49.902;8.590;2023-04-01T02:56:23;10.70;99.90
7494;DHT22;3788;49.902;8.590;2023-04-01T02:58:51;10.70;99.90
7494;DHT22;3788;49.902;8.590;2023-04-01T03:01:18;10.70;99.90
7494;DHT22;3788;49.902;8.590;2023-04-01T03:03:44;10.60;99.90
7494;DHT22;3788;49.902;8.590;2023-04-01T03:06:13;10.60;99.90
7494;DHT22;3788;49.902;8.590;2023-04-01T03:08:41;10.60;99.90
7494;DHT22;3788;49.902;8.590;2023-04-01T03:11:09;10.60;99.90
7494;DHT22;3788;49.902;8.590;2023-04-01T03:13:36;10.60;99.90
7494;DHT22;3788;49.902;8.590;2023-04-01T03:16:05;10.60;99.90
7494;DHT22;3788;49.902;8.590;2023-04-01T03:18:31;10.60;99.90
7494;DHT22;3788;49.902;8.590;2023-04-01T03:21:12;10.60;99.90
7494;DHT22;3788;49.902;8.590;2023-04-01T03:23:39;10.60;99.90
7494;DHT22;3788;49.902;8.590;2023-04-01T03:26:06;10.60;99.90
7494;DHT22;3788;49.902;8.590;2023-04-01T03:28:33;10.60;99.90
7494;DHT22;3788;49.902;8.590;2023-04-01T03:31:00;10.60;99.90
7494;DHT22;3788;49.902;8.590;2023-04-01T03:33:28;10.60;99.90
7494;DHT22;3788;49.902;8.590;2023-04-01T03:35:55;10.60;99.90
7494;DHT22;3788;49.902;8.590;2023-04-01T03:38:21;10.60;99.90
7494;DHT22;3788;49.902;8.590;2023-04-01T03:40:48;10.60;99.90
7494;DHT22;3788;49.902;8.590;2023-04-01T03:43:15;10.60;99.90
7494;DHT22;3788;49.902;8.590;2023-04-01T03:45:44;10.60;99.90
7494;DHT22;3788;49.902;8.590;2023-04-01T03:48:10;10.60;99.90
7494;DHT22;3788;49.902;8.590;2023-04-01T03:50:39;10.50;99.90
7494;DHT22;3788;49.902;8.590;2023-04-01T03:53:05;10.60;99.90
7494;DHT22;3788;49.902;8.590;2023-04-01T03:55:32;10.60;99.90
7494;DHT22;3788;49.902;8.590;2023-04-01T03:58:00;10.60;99.90
7494;DHT22;3788;49.902;8.590;2023-04-01T04:00:28;10.60;99.90
7494;DHT22;3788;49.902;8.590;2023-04-01T04:02:55;10.60;99.90
7494;DHT22;3788;49.902;8.590;2023-04-01T04:05:22;10.60;99.90
7494;DHT22;3788;49.902;8.590;2023-04-01T04:07:51;10.60;99.90
7494;DHT22;3788;49.902;8.590;2023-04-01T04:10:19;10.60;99.90
7494;DHT22;3788;49.902;8.590;2023-04-01T04:12:45;10.60;99.90
7494;DHT22;3788;49.902;8.590;2023-04-01T04:15:12;10.60;99.90
7494;DHT22;3788;49.902;8.590;2023-04-01T04:17:39;10.60;99.90
7494;DHT22;3788;49.902;8.590;2023-04-01T04:20:07;10.60;99.90
7494;DHT22;3788;49.902;8.590;2023-04-01T04:22:34;10.60;99.90
7494;DHT22;3788;49.902;8.590;2023-04-01T04:25:03;10.70;99.90
7494;DHT22;3788;49.902;8.590;2023-04-01T04:27:30;10.70;99.90
7494;DHT22;3788;49.902;8.590;2023-04-01T04:29:57;10.70;99.90
7494;DHT22;3788;49.902;8.590;2023-04-01T04:32:24;10.70;99.90
7494;DHT22;3788;49.902;8.590;2023-04-01T04:34:50;10.70;99.90
7494;DHT22;3788;49.902;8.590;2023-04-01T04:37:17;10.70;99.90
7494;DHT22;3788;49.902;8.590;2023-04-01T04:39:44;10.70;99.90
7494;DHT22;3788;49.902;8.590;2023-04-01T04:42:12;10.70;99.90
7494;DHT22;3788;49.902;8.590;2023-04-01T04:44:39;10.60;99.90
7494;DHT22;3788;49.902;8.590;2023-04-01T04:47:05;10.70;99.90
7494;DHT22;3788;49.902;8.590;2023-04-01T04:49:32;10.70;99.90
7494;DHT22;3788;49.902;8.590;2023-04-01T04:51:59;10.70;99.90
7494;DHT22;3788;49.902;8.590;2023-04-01T04:54:26;10.70;99.90
7494;DHT22;3788;49.902;8.590;2023-04-01T04:56:54;10.70;99.90
7494;DHT22;3788;49.902;8.590;2023-04-01T04:59:22;10.80;99.90
7494;DHT22;3788;49.902;8.590;2023-04-01T05:01:49;10.70;99.90
7494;DHT22;3788;49.902;8.590;2023-04-01T05:04:16;10.70;99.90
7494;DHT22;3788;49.902;8.590;2023-04-01T05:06:43;10.70;99.90
7494;DHT22;3788;49.902;8.590;2023-04-01T05:09:10;10.70;99.90
7494;DHT22;3788;49.902;8.590;2023-04-01T05:11:37;10.70;99.90
7494;DHT22;3788;49.902;8.590;2023-04-01T05:14:04;10.80;99.90
7494;DHT22;3788;49.902;8.590;2023-04-01T05:16:32;10.70;99.90
7494;DHT22;3788;49.902;8.590;2023-04-01T05:18:58;10.80;99.90
7494;DHT22;3788;49.902;8.590;2023-04-01T05:21:25;10.80;99.90
7494;DHT22;3788;49.902;8.590;2023-04-01T05:23:52;10.80;99.90
7494;DHT22;3788;49.902;8.590;2023-04-01T05:26:19;10.80;99.90
7494;DHT22;3788;49.902;8.590;2023-04-01T05:28:46;10.80;99.90
7494;DHT22;3788;49.902;8.590;2023-04-01T05:31:13;10.70;99.90
7494;DHT22;3788;49.902;8.590;2023-04-01T05:33:41;10.80;99.90
7494;DHT22;3788;49.902;8.590;2023-04-01T05:36:09;10.70;99.90
7494;DHT22;3788;49.902;8.590;2023-04-01T05:38:37;10.70;99.90
7494;DHT22;3788;49.902;8.590;2023-04-01T05:41:04;10.80;99.90
7494;DHT22;3788;49.902;8.590;2023-04-01T05:43:31;10.70;99.90
7494;DHT22;3788;49.902;8.590;2023-04-01T05:45:58;10.70;99.90
7494;DHT22;3788;49.902;8.590;2023-04-01T05:48:24;10.70;99.90
7494;DHT22;3788;49.902;8.590;2023-04-01T05:50:53;10.70;99.90
7494;DHT22;3788;49.902;8.590;2023-04-01T05:53:20;10.70;99.90
7494;DHT22;3788;49.902;8.590;2023-04-01T05:55:48;10.70;99.90
7494;DHT22;3788;49.902;8.590;2023-04-01T05:58:15;10.70;99.90
7494;DHT22;3788;49.902;8.590;2023-04-01T06:00:50;10.70;99.90
7494;DHT22;3788;49.902;8.590;2023-04-01T06:03:17;10.70;99.90
7494;DHT22;3788;49.902;8.590;2023-04-01T06:05:44;10.70;99.90
7494;DHT22;3788;49.902;8.590;2023-04-01T06:08:13;10.70;99.90
7494;DHT22;3788;49.902;8.590;2023-04-01T06:10:59;10.70;99.90
7494;DHT22;3788;49.902;8.590;2023-04-01T06:13:39;10.70;99.90
7494;DHT22;3788;49.902;8.590;2023-04-01T06:16:19;10.70;99.90
7494;DHT22;3788;49.902;8.590;2023-04-01T06:18:55;10.70;99.90
7494;DHT22;3788;49.902;8.590;2023-04-01T06:21:42;10.70;99.90
7494;DHT22;3788;49.902;8.590;2023-04-01T06:24:24;10.80;99.90
7494;DHT22;3788;49.902;8.590;2023-04-01T06:26:59;10.80;99.90
7494;DHT22;3788;49.902;8.590;2023-04-01T06:29:47;10.80;99.90
7494;DHT22;3788;49.902;8.590;2023-04-01T06:32:43;10.80;99.90
7494;DHT22;3788;49.902;8.590;2023-04-01T06:35:19;10.80;99.90
7494;DHT22;3788;49.902;8.590;2023-04-01T06:38:06;10.80;99.90
7494;DHT22;3788;49.902;8.590;2023-04-01T06:40:53;10.80;99.90
7494;DHT22;3788;49.902;8.590;2023-04-01T06:43:27;10.90;99.90
7494;DHT22;3788;49.902;8.590;2023-04-01T06:46:02;10.90;99.90
7494;DHT22;3788;49.902;8.590;2023-04-01T06:48:47;10.90;99.90
7494;DHT22;3788;49.902;8.590;2023-04-01T06:51:26;10.90;99.90
7494;DHT22;3788;49.902;8.590;2023-04-01T06:54:02;10.90;99.90
7494;DHT22;3788;49.902;8.590;2023-04-01T06:56:32;11.00;99.90
7494;DHT22;3788;49.902;8.590;2023-04-01T06:59:02;10.90;99.90
7494;DHT22;3788;49.902;8.590;2023-04-01T07:01:35;10.90;99.90
7494;DHT22;3788;49.902;8.590;2023-04-01T07:04:09;10.90;99.90
7494;DHT22;3788;49.902;8.590;2023-04-01T07:06:39;10.90;99.90
7494;DHT22;3788;49.902;8.590;2023-04-01T07:09:12;10.90;99.90
7494;DHT22;3788;49.902;8.590;2023-04-01T07:11:42;10.90;99.90
7494;DHT22;3788;49.902;8.590;2023-04-01T07:14:15;10.90;99.90
7494;DHT22;3788;49.902;8.590;2023-04-01T07:16:46;10.90;99.90
7494;DHT22;3788;49.902;8.590;2023-04-01T07:19:20;10.90;99.90
7494;DHT22;3788;49.902;8.590;2023-04-01T07:21:50;10.90;99.90
7494;DHT22;3788;49.902;8.590;2023-04-01T07:24:22;10.90;99.90
7494;DHT22;3788;49.902;8.590;2023-04-01T07:26:53;11.00;99.90
7494;DHT22;3788;49.902;8.590;2023-04-01T07:29:20;11.00;99.90
7494;DHT22;3788;49.902;8.590;2023-04-01T07:32:22;11.00;99.90
7494;DHT22;3788;49.902;8.590;2023-04-01T07:35:02;11.10;99.90
7494;DHT22;3788;49.902;8.590;2023-04-01T07:37:36;11.10;99.90
7494;DHT22;3788;49.902;8.590;2023-04-01T07:40:16;11.20;99.90
7494;DHT22;3788;49.902;8.590;2023-04-01T07:42:58;11.20;99.90
7494;DHT22;3788;49.902;8.590;2023-04-01T07:45:31;11.30;99.90
7494;DHT22;3788;49.902;8.590;2023-04-01T07:48:09;11.30;99.90
7494;DHT22;3788;49.902;8.590;2023-04-01T07:50:44;11.40;99.90
7494;DHT22;3788;49.902;8.590;2023-04-01T07:53:17;11.40;99.90
7494;DHT22;3788;49.902;8.590;2023-04-01T07:55:56;11.40;99.90
7494;DHT22;3788;49.902;8.590;2023-04-01T07:58:32;11.40;99.90
7494;DHT22;3788;49.902;8.590;2023-04-01T08:01:08;11.40;99.90
7494;DHT22;3788;49.902;8.590;2023-04-01T08:03:49;11.50;99.90
7494;DHT22;3788;49.902;8.590;2023-04-01T08:06:24;11.50;99.90
7494;DHT22;3788;49.902;8.590;2023-04-01T08:09:00;11.60;99.90
7494;DHT22;3788;49.902;8.590;2023-04-01T08:11:40;11.60;99.90
7494;DHT22;3788;49.902;8.590;2023-04-01T08:14:16;11.70;99.90
7494;DHT22;3788;49.902;8.590;2023-04-01T08:16:50;11.70;99.90
7494;DHT22;3788;49.902;8.590;2023-04-01T08:19:27;11.70;99.90
7494;DHT22;3788;49.902;8.590;2023-04-01T08:21:58;11.70;99.90
7494;DHT22;3788;49.902;8.590;2023-04-01T08:24:34;11.70;99.90
7494;DHT22;3788;49.902;8.590;2023-04-01T08:27:09;11.70;99.90
7494;DHT22;3788;49.902;8.590;2023-04-01T08:29:48;11.70;99.90
7494;DHT22;3788;49.902;8.590;2023-04-01T08:32:20;11.60;99.90
7494;DHT22;3788;49.902;8.590;2023-04-01T08:34:53;11.60;99.90
7494;DHT22;3788;49.902;8.590;2023-04-01T08:37:24;11.60;99.90
7494;DHT22;3788;49.902;8.590;2023-04-01T08:39:55;11.50;99.90
7494;DHT22;3788;49.902;8.590;2023-04-01T08:42:36;11.50;99.90
7494;DHT22;3788;49.902;8.590;2023-04-01T08:45:18;11.50;99.90
7494;DHT22;3788;49.902;8.590;2023-04-01T08:48:04;11.40;99.90
7494;DHT22;3788;49.902;8.590;2023-04-01T08:54:04;11.40;99.90
7494;DHT22;3788;49.902;8.590;2023-04-01T08:56:41;11.40;99.90
7494;DHT22;3788;49.902;8.590;2023-04-01T08:59:39;11.40;99.90
7494;DHT22;3788;49.902;8.590;2023-04-01T09:02:35;11.50;99.90
7494;DHT22;3788;49.902;8.590;2023-04-01T09:05:45;11.60;99.90
7494;DHT22;3788;49.902;8.590;2023-04-01T09:08:28;11.60;99.90
7494;DHT22;3788;49.902;8.590;2023-04-01T09:11:07;11.60;99.90
7494;DHT22;3788;49.902;8.590;2023-04-01T09:13:50;11.60;99.90
7494;DHT22;3788;49.902;8.590;2023-04-01T09:16:30;11.60;99.90
7494;DHT22;3788;49.902;8.590;2023-04-01T09:19:15;11.60;99.90
7494;DHT22;3788;49.902;8.590;2023-04-01T09:21:55;11.70;99.90
7494;DHT22;3788;49.902;8.590;2023-04-01T09:24:58;11.70;99.90
7494;DHT22;3788;49.902;8.590;2023-04-01T09:27:31;11.80;99.90
7494;DHT22;3788;49.902;8.590;2023-04-01T09:33:23;11.80;99.90
7494;DHT22;3788;49.902;8.590;2023-04-01T09:36:03;11.80;99.90
7494;DHT22;3788;49.902;8.590;2023-04-01T09:38:44;11.80;99.90
7494;DHT22;3788;49.902;8.590;2023-04-01T09:41:22;11.80;99.90
7494;DHT22;3788;49.902;8.590;2023-04-01T09:44:00;11.80;99.90
7494;DHT22;3788;49.902;8.590;2023-04-01T09:46:41;11.80;99.90
7494;DHT22;3788;49.902;8.590;2023-04-01T09:49:43;11.80;99.90
7494;DHT22;3788;49.902;8.590;2023-04-01T09:52:26;11.70;99.90
7494;DHT22;3788;49.902;8.590;2023-04-01T09:55:29;11.60;99.90
7494;DHT22;3788;49.902;8.590;2023-04-01T09:58:24;11.60;99.90
7494;DHT22;3788;49.902;8.590;2023-04-01T10:04:49;11.50;99.90
7494;DHT22;3788;49.902;8.590;2023-04-01T10:08:05;11.40;99.90
7494;DHT22;3788;49.902;8.590;2023-04-01T10:10:59;11.40;99.90
7494;DHT22;3788;49.902;8.590;2023-04-01T10:17:00;11.40;99.90
7494;DHT22;3788;49.902;8.590;2023-04-01T10:20:13;11.40;99.90
7494;DHT22;3788;49.902;8.590;2023-04-01T10:23:31;11.50;99.90
7494;DHT22;3788;49.902;8.590;2023-04-01T10:26:39;11.60;99.90
7494;DHT22;3788;49.902;8.590;2023-04-01T10:29:27;11.70;99.90
7494;DHT22;3788;49.902;8.590;2023-04-01T10:35:23;11.70;99.90
7494;DHT22;3788;49.902;8.590;2023-04-01T10:41:33;11.80;99.90
7494;DHT22;3788;49.902;8.590;2023-04-01T10:44:33;11.90;99.90
7494;DHT22;3788;49.902;8.590;2023-04-01T10:50:30;11.80;99.90
7494;DHT22;3788;49.902;8.590;2023-04-01T10:53:31;11.80;99.90
7494;DHT22;3788;49.902;8.590;2023-04-01T10:56:29;11.80;99.90
7494;DHT22;3788;49.902;8.590;2023-04-01T10:59:43;11.80;99.90
7494;DHT22;3788;49.902;8.590;2023-04-01T11:12:04;11.90;99.90
7494;DHT22;3788;49.902;8.590;2023-04-01T11:15:04;12.00;99.90
7494;DHT22;3788;49.902;8.590;2023-04-01T11:24:09;12.20;99.90
7494;DHT22;3788;49.902;8.590;2023-04-01T11:26:52;12.20;99.90
7494;DHT22;3788;49.902;8.590;2023-04-01T11:32:26;12.30;99.90
7494;DHT22;3788;49.902;8.590;2023-04-01T11:35:12;12.30;99.90
7494;DHT22;3788;49.902;8.590;2023-04-01T11:37:46;12.30;99.90
7494;DHT22;3788;49.902;8.590;2023-04-01T11:40:23;12.30;99.90
7494;DHT22;3788;49.902;8.590;2023-04-01T11:42:58;12.30;99.90
7494;DHT22;3788;49.902;8.590;2023-04-01T11:45:35;12.30;99.90
7494;DHT22;3788;49.902;8.590;2023-04-01T11:48:32;12.30;99.90
7494;DHT22;3788;49.902;8.590;2023-04-01T11:51:16;12.30;99.90
7494;DHT22;3788;49.902;8.590;2023-04-01T11:53:52;12.20;99.90
7494;DHT22;3788;49.902;8.590;2023-04-01T11:56:44;12.20;99.90
7494;DHT22;3788;49.902;8.590;2023-04-01T12:02:23;12.20;99.90
7494;DHT22;3788;49.902;8.590;2023-04-01T12:05:01;12.20;99.90
7494;DHT22;3788;49.902;8.590;2023-04-01T12:07:50;12.10;99.90
7494;DHT22;3788;49.902;8.590;2023-04-01T12:10:19;12.10;99.90
7494;DHT22;3788;49.902;8.590;2023-04-01T12:12:53;12.20;99.90
7494;DHT22;3788;49.902;8.590;2023-04-01T12:15:30;12.10;99.90
7494;DHT22;3788;49.902;8.590;2023-04-01T12:18:05;12.10;99.90
7494;DHT22;3788;49.902;8.590;2023-04-01T12:20:46;12.10;99.90
7494;DHT22;3788;49.902;8.590;2023-04-01T12:23:29;12.10;99.90
7494;DHT22;3788;49.902;8.590;2023-04-01T12:26:19;12.00;99.90
7494;DHT22;3788;49.902;8.590;2023-04-01T12:29:03;12.00;99.90
7494;DHT22;3788;49.902;8.590;2023-04-01T12:31:40;12.00;99.90
7494;DHT22;3788;49.902;8.590;2023-04-01T12:34:40;12.00;99.90
7494;DHT22;3788;49.902;8.590;2023-04-01T12:37:20;12.10;99.90
7494;DHT22;3788;49.902;8.590;2023-04-01T12:40:01;12.10;99.90
7494;DHT22;3788;49.902;8.590;2023-04-01T12:42:52;12.20;99.90
7494;DHT22;3788;49.902;8.590;2023-04-01T12:45:31;12.40;99.90
7494;DHT22;3788;49.902;8.590;2023-04-01T12:48:42;12.40;99.90
7494;DHT22;3788;49.902;8.590;2023-04-01T12:51:26;12.40;99.90
7494;DHT22;3788;49.902;8.590;2023-04-01T12:57:05;12.50;99.90
7494;DHT22;3788;49.902;8.590;2023-04-01T12:59:47;12.60;99.90
7494;DHT22;3788;49.902;8.590;2023-04-01T13:02:27;12.70;99.90
7494;DHT22;3788;49.902;8.590;2023-04-01T13:05:20;12.70;99.90
7494;DHT22;3788;49.902;8.590;2023-04-01T13:08:10;12.70;99.90
7494;DHT22;3788;49.902;8.590;2023-04-01T13:11:02;12.60;99.90
7494;DHT22;3788;49.902;8.590;2023-04-01T13:13:45;12.60;99.90
7494;DHT22;3788;49.902;8.590;2023-04-01T13:16:16;12.50;99.90
7494;DHT22;3788;49.902;8.590;2023-04-01T13:18:56;12.50;99.90
7494;DHT22;3788;49.902;8.590;2023-04-01T13:21:34;12.40;99.90
7494;DHT22;3788;49.902;8.590;2023-04-01T13:24:12;12.40;99.90
7494;DHT22;3788;49.902;8.590;2023-04-01T13:26:53;12.40;99.90
7494;DHT22;3788;49.902;8.590;2023-04-01T13:29:27;12.40;99.90
7494;DHT22;3788;49.902;8.590;2023-04-01T13:32:05;12.30;99.90
7494;DHT22;3788;49.902;8.590;2023-04-01T13:34:52;12.40;99.90
7494;DHT22;3788;49.902;8.590;2023-04-01T13:37:29;12.40;99.90
7494;DHT22;3788;49.902;8.590;2023-04-01T13:40:12;12.50;99.90
7494;DHT22;3788;49.902;8.590;2023-04-01T13:42:47;12.50;99.90
7494;DHT22;3788;49.902;8.590;2023-04-01T13:45:17;12.50;99.90
7494;DHT22;3788;49.902;8.590;2023-04-01T13:48:07;12.50;99.90
7494;DHT22;3788;49.902;8.590;2023-04-01T13:51:00;12.60;99.90
7494;DHT22;3788;49.902;8.590;2023-04-01T13:56:36;12.80;99.90
7494;DHT22;3788;49.902;8.590;2023-04-01T13:59:41;12.80;99.90
7494;DHT22;3788;49.902;8.590;2023-04-01T14:02:28;12.80;99.90
7494;DHT22;3788;49.902;8.590;2023-04-01T14:05:25;12.90;99.90
7494;DHT22;3788;49.902;8.590;2023-04-01T14:08:01;13.00;99.90
7494;DHT22;3788;49.902;8.590;2023-04-01T14:10:36;13.10;99.90
7494;DHT22;3788;49.902;8.590;2023-04-01T14:13:11;13.20;99.90
7494;DHT22;3788;49.902;8.590;2023-04-01T14:15:59;13.20;99.90
7494;DHT22;3788;49.902;8.590;2023-04-01T14:18:37;13.20;99.90
7494;DHT22;3788;49.902;8.590;2023-04-01T14:21:20;13.20;99.90
7494;DHT22;3788;49.902;8.590;2023-04-01T14:24:15;13.20;99.90
7494;DHT22;3788;49.902;8.590;2023-04-01T14:27:07;13.20;99.90
7494;DHT22;3788;49.902;8.590;2023-04-01T14:29:41;13.30;99.90
7494;DHT22;3788;49.902;8.590;2023-04-01T14:32:16;13.30;99.90
7494;DHT22;3788;49.902;8.590;2023-04-01T14:34:58;13.40;99.90
7494;DHT22;3788;49.902;8.590;2023-04-01T14:37:40;13.40;99.90
7494;DHT22;3788;49.902;8.590;2023-04-01T14:40:33;13.50;99.90
7494;DHT22;3788;49.902;8.590;2023-04-01T14:46:13;13.40;99.90
7494;DHT22;3788;49.902;8.590;2023-04-01T14:48:51;13.30;99.90
7494;DHT22;3788;49.902;8.590;2023-04-01T14:51:23;13.20;99.90
7494;DHT22;3788;49.902;8.590;2023-04-01T14:54:00;13.10;99.90
7494;DHT22;3788;49.902;8.590;2023-04-01T14:56:36;13.10;99.90
7494;DHT22;3788;49.902;8.590;2023-04-01T14:59:08;13.00;99.90
7494;DHT22;3788;49.902;8.590;2023-04-01T15:01:40;13.00;99.90
7494;DHT22;3788;49.902;8.590;2023-04-01T15:04:28;13.00;99.90
7494;DHT22;3788;49.902;8.590;2023-04-01T15:07:07;13.00;99.90
7494;DHT22;3788;49.902;8.590;2023-04-01T15:09:43;13.00;99.90
7494;DHT22;3788;49.902;8.590;2023-04-01T15:12:22;13.00;99.90
7494;DHT22;3788;49.902;8.590;2023-04-01T15:15:26;13.00;99.90
7494;DHT22;3788;49.902;8.590;2023-04-01T15:18:18;12.90;99.90
7494;DHT22;3788;49.902;8.590;2023-04-01T15:21:03;12.90;99.90
7494;DHT22;3788;49.902;8.590;2023-04-01T15:23:45;12.90;99.90
7494;DHT22;3788;49.902;8.590;2023-04-01T15:26:21;12.80;99.90
7494;DHT22;3788;49.902;8.590;2023-04-01T15:29:00;12.80;99.90
7494;DHT22;3788;49.902;8.590;2023-04-01T15:31:33;12.80;99.90
7494;DHT22;3788;49.902;8.590;2023-04-01T15:34:17;12.80;99.90
7494;DHT22;3788;49.902;8.590;2023-04-01T15:36:53;12.80;99.90
7494;DHT22;3788;49.902;8.590;2023-04-01T15:39:28;12.80;99.90
7494;DHT22;3788;49.902;8.590;2023-04-01T15:42:12;12.80;99.90
7494;DHT22;3788;49.902;8.590;2023-04-01T15:44:50;12.80;99.90
7494;DHT22;3788;49.902;8.590;2023-04-01T15:47:33;12.90;99.90
7494;DHT22;3788;49.902;8.590;2023-04-01T15:53:21;12.90;99.90
7494;DHT22;3788;49.902;8.590;2023-04-01T15:55:54;13.00;99.90
7494;DHT22;3788;49.902;8.590;2023-04-01T15:58:35;13.00;99.90
7494;DHT22;3788;49.902;8.590;2023-04-01T16:01:13;13.00;99.90
7494;DHT22;3788;49.902;8.590;2023-04-01T16:03:49;13.00;99.90
7494;DHT22;3788;49.902;8.590;2023-04-01T16:06:38;12.90;99.90
7494;DHT22;3788;49.902;8.590;2023-04-01T16:09:37;12.90;99.90
7494;DHT22;3788;49.902;8.590;2023-04-01T16:12:14;13.00;99.90
7494;DHT22;3788;49.902;8.590;2023-04-01T16:14:49;13.00;99.90
7494;DHT22;3788;49.902;8.590;2023-04-01T16:17:38;13.00;99.90
7494;DHT22;3788;49.902;8.590;2023-04-01T16:20:18;13.00;99.90
7494;DHT22;3788;49.902;8.590;2023-04-01T16:22:52;13.00;99.90
7494;DHT22;3788;49.902;8.590;2023-04-01T16:25:31;13.00;99.90
7494;DHT22;3788;49.902;8.590;2023-04-01T16:28:09;13.00;99.90
7494;DHT22;3788;49.902;8.590;2023-04-01T16:30:43;12.90;99.90
7494;DHT22;3788;49.902;8.590;2023-04-01T16:33:15;12.80;99.90
7494;DHT22;3788;49.902;8.590;2023-04-01T16:35:49;12.80;99.90
7494;DHT22;3788;49.902;8.590;2023-04-01T16:38:23;12.70;99.90
7494;DHT22;3788;49.902;8.590;2023-04-01T16:41:00;12.70;99.90
7494;DHT22;3788;49.902;8.590;2023-04-01T16:43:39;12.70;99.90
7494;DHT22;3788;49.902;8.590;2023-04-01T16:46:28;12.70;99.90
7494;DHT22;3788;49.902;8.590;2023-04-01T16:49:01;12.70;99.90
7494;DHT22;3788;49.902;8.590;2023-04-01T16:51:41;12.70;99.90
7494;DHT22;3788;49.902;8.590;2023-04-01T16:54:16;12.70;99.90
7494;DHT22;3788;49.902;8.590;2023-04-01T16:56:50;12.70;99.90
7494;DHT22;3788;49.902;8.590;2023-04-01T16:59:21;12.70;99.90
7494;DHT22;3788;49.902;8.590;2023-04-01T17:01:53;12.70;99.90
7494;DHT22;3788;49.902;8.590;2023-04-01T17:04:30;12.70;99.90
7494;DHT22;3788;49.902;8.590;2023-04-01T17:07:06;12.60;99.90
7494;DHT22;3788;49.902;8.590;2023-04-01T17:09:50;12.50;99.90
7494;DHT22;3788;49.902;8.590;2023-04-01T17:12:24;12.50;99.90
7494;DHT22;3788;49.902;8.590;2023-04-01T17:15:01;12.50;99.90
7494;DHT22;3788;49.902;8.590;2023-04-01T17:17:36;12.50;99.90
7494;DHT22;3788;49.902;8.590;2023-04-01T17:20:14;12.40;99.90
7494;DHT22;3788;49.902;8.590;2023-04-01T17:22:50;12.40;99.90
7494;DHT22;3788;49.902;8.590;2023-04-01T17:25:34;12.40;99.90
7494;DHT22;3788;49.902;8.590;2023-04-01T17:28:17;12.40;99.90
7494;DHT22;3788;49.902;8.590;2023-04-01T17:30:52;12.30;99.90
7494;DHT22;3788;49.902;8.590;2023-04-01T17:36:27;12.30;99.90
7494;DHT22;3788;49.902;8.590;2023-04-01T17:39:15;12.30;99.90
7494;DHT22;3788;49.902;8.590;2023-04-01T17:41:51;12.40;99.90
7494;DHT22;3788;49.902;8.590;2023-04-01T17:44:29;12.30;99.90
7494;DHT22;3788;49.902;8.590;2023-04-01T17:47:18;12.40;99.90
7494;DHT22;3788;49.902;8.590;2023-04-01T17:49:54;12.30;99.90
7494;DHT22;3788;49.902;8.590;2023-04-01T17:52:26;12.30;99.90
7494;DHT22;3788;49.902;8.590;2023-04-01T17:55:03;12.30;99.90
7494;DHT22;3788;49.902;8.590;2023-04-01T17:57:43;12.20;99.90
7494;DHT22;3788;49.902;8.590;2023-04-01T18:00:23;12.20;99.90
7494;DHT22;3788;49.902;8.590;2023-04-01T18:02:57;12.20;99.90